createdAt,value
2022-11-30T00:01:30.988Z,47.18
2022-11-30T00:06:33.522Z,47.22
2022-11-30T00:11:35.262Z,47.11
2022-11-30T00:16:40.166Z,47.11
2022-11-30T00:21:41.951Z,47.39
2022-11-30T00:26:43.689Z,47.51
2022-11-30T00:31:47.576Z,47.43
2022-11-30T00:36:49.398Z,47.56
2022-11-30T00:41:51.039Z,47.61
2022-11-30T00:46:52.797Z,47.52
2022-11-30T00:51:54.587Z,47.56
2022-11-30T00:56:56.489Z,47.57
2022-11-30T01:01:58.239Z,47.36
2022-11-30T01:06:59.861Z,47.71
2022-11-30T01:12:01.558Z,47.69
2022-11-30T01:17:03.276Z,47.49
2022-11-30T01:22:05.035Z,47.33
2022-11-30T01:27:06.813Z,47.39
2022-11-30T01:32:08.546Z,47.32
2022-11-30T01:37:10.207Z,47.08
2022-11-30T01:42:18.781Z,47.06
2022-11-30T01:47:34.728Z,46.87
2022-11-30T01:52:40.446Z,46.75
2022-11-30T01:57:47.198Z,46.88
2022-11-30T02:03:07.771Z,46.90
2022-11-30T02:08:11.132Z,47.19
2022-11-30T02:13:41.833Z,47.35
2022-11-30T02:18:55.730Z,47.74
2022-11-30T02:24:25.475Z,47.86
2022-11-30T02:29:34.688Z,47.62
2022-11-30T02:34:37.966Z,47.64
2022-11-30T02:39:39.697Z,47.64
2022-11-30T02:44:43.096Z,47.29
2022-11-30T02:50:00.270Z,47.23
2022-11-30T02:55:07.541Z,47.80
2022-11-30T03:00:11.153Z,48.00
2022-11-30T03:05:12.917Z,48.05
2022-11-30T03:10:14.924Z,48.23
2022-11-30T03:15:16.816Z,48.40
2022-11-30T03:20:18.579Z,48.46
2022-11-30T03:25:20.260Z,48.09
2022-11-30T03:30:21.980Z,48.35
2022-11-30T03:35:24.665Z,48.20
2022-11-30T03:40:26.392Z,48.07
2022-11-30T03:45:28.109Z,47.78
2022-11-30T03:50:29.844Z,47.77
2022-11-30T03:55:31.572Z,47.64
2022-11-30T04:00:33.224Z,47.54
2022-11-30T04:05:34.916Z,47.54
2022-11-30T04:10:36.660Z,47.48
2022-11-30T04:15:38.390Z,47.37
2022-11-30T04:20:40.783Z,46.97
2022-11-30T04:25:42.870Z,46.94
2022-11-30T04:30:46.005Z,47.18
2022-11-30T04:35:55.185Z,47.13
2022-11-30T04:40:56.971Z,47.62
2022-11-30T04:45:58.728Z,47.81
2022-11-30T04:51:01.512Z,48.03
2022-11-30T04:56:11.086Z,48.26
2022-11-30T05:01:12.894Z,48.21
2022-11-30T05:06:14.652Z,48.09
2022-11-30T05:11:16.486Z,48.14
2022-11-30T05:16:18.285Z,47.94
2022-11-30T05:21:20.101Z,48.10
2022-11-30T05:26:21.821Z,48.32
2022-11-30T05:31:23.778Z,48.35
2022-11-30T05:36:25.749Z,48.26
2022-11-30T05:41:27.547Z,47.99
2022-11-30T05:46:29.450Z,47.82
2022-11-30T05:51:31.411Z,48.21
2022-11-30T05:56:33.143Z,48.29
2022-11-30T06:01:34.787Z,48.53
2022-11-30T06:06:36.536Z,48.11
2022-11-30T06:11:38.260Z,48.54
2022-11-30T06:16:40.107Z,48.35
2022-11-30T06:21:42.016Z,48.23
2022-11-30T06:26:43.771Z,48.10
2022-11-30T06:31:45.618Z,47.99
2022-11-30T06:36:47.389Z,47.90
2022-11-30T06:41:54.348Z,47.51
2022-11-30T06:46:56.430Z,47.44
2022-11-30T06:51:58.263Z,47.35
2022-11-30T06:57:00.013Z,47.12
2022-11-30T07:02:08.092Z,47.15
2022-11-30T07:07:11.515Z,47.15
2022-11-30T07:12:13.359Z,47.07
2022-11-30T07:17:15.138Z,46.95
2022-11-30T07:22:16.866Z,46.90
2022-11-30T07:27:18.589Z,47.09
2022-11-30T07:32:20.270Z,47.08
2022-11-30T07:37:22.146Z,46.97
2022-11-30T07:42:23.868Z,47.21
2022-11-30T07:47:30.621Z,47.58
2022-11-30T07:52:32.497Z,47.34
2022-11-30T07:57:34.251Z,47.58
2022-11-30T08:02:36.000Z,47.71
2022-11-30T08:07:37.784Z,47.67
2022-11-30T08:12:39.504Z,48.01
2022-11-30T08:17:41.475Z,47.78
2022-11-30T08:22:43.261Z,47.54
2022-11-30T08:27:45.204Z,47.26
2022-11-30T08:32:46.898Z,47.16
2022-11-30T08:37:48.562Z,47.08
2022-11-30T08:42:50.262Z,46.89
2022-11-30T08:47:54.191Z,47.35
2022-11-30T08:52:59.377Z,47.11
2022-11-30T08:58:03.517Z,47.04
2022-11-30T09:03:05.215Z,46.97
2022-11-30T09:08:06.938Z,46.84
2022-11-30T09:13:08.819Z,46.84
2022-11-30T09:18:11.410Z,46.84
2022-11-30T09:23:13.288Z,46.58
2022-11-30T09:28:15.007Z,46.75
2022-11-30T09:33:16.925Z,46.62
2022-11-30T09:38:18.727Z,46.62
2022-11-30T09:43:49.684Z,46.89
2022-11-30T09:49:19.522Z,46.69
2022-11-30T09:54:35.725Z,46.76
2022-11-30T09:59:38.540Z,46.57
2022-11-30T10:04:40.758Z,46.97
2022-11-30T10:10:09.413Z,46.97
2022-11-30T10:15:38.055Z,46.95
2022-11-30T10:20:52.719Z,46.57
2022-11-30T10:26:04.570Z,46.67
2022-11-30T10:31:12.679Z,46.69
2022-11-30T10:36:33.462Z,46.31
2022-11-30T10:41:45.796Z,45.62
2022-11-30T10:47:01.077Z,45.70
2022-11-30T10:52:08.846Z,45.95
2022-11-30T10:57:10.778Z,45.82
2022-11-30T11:02:37.739Z,45.23
2022-11-30T11:07:50.448Z,44.94
2022-11-30T11:12:55.031Z,45.19
2022-11-30T11:18:32.207Z,45.58
2022-11-30T11:23:44.925Z,45.26
2022-11-30T11:28:52.119Z,45.01
2022-11-30T11:33:54.584Z,44.83
2022-11-30T11:38:57.625Z,44.82
2022-11-30T11:44:21.294Z,44.58
2022-11-30T11:49:29.692Z,44.20
2022-11-30T11:54:37.331Z,44.14
2022-11-30T12:00:02.348Z,44.02
2022-11-30T12:05:16.218Z,44.02
2022-11-30T12:10:56.889Z,43.88
2022-11-30T12:16:20.534Z,43.95
2022-11-30T12:21:30.514Z,43.78
2022-11-30T12:26:47.492Z,43.96
2022-11-30T12:31:56.884Z,43.67
2022-11-30T12:37:17.974Z,43.64
2022-11-30T12:42:32.347Z,43.51
2022-11-30T12:47:51.371Z,43.67
2022-11-30T12:53:14.249Z,43.35
2022-11-30T12:58:27.864Z,43.48
2022-11-30T13:03:44.103Z,43.44
2022-11-30T13:09:11.526Z,43.56
2022-11-30T13:14:20.482Z,43.33
2022-11-30T13:20:08.204Z,43.19
2022-11-30T13:26:06.738Z,43.33
2022-11-30T13:31:04.304Z,43.48
2022-11-30T13:36:22.230Z,43.50
2022-11-30T13:41:23.950Z,43.31
2022-11-30T13:46:25.603Z,42.67
2022-11-30T13:51:34.828Z,43.38
2022-11-30T13:56:36.677Z,43.64
2022-11-30T14:01:38.472Z,43.87
2022-11-30T14:06:43.226Z,44.26
2022-11-30T14:11:45.790Z,44.12
2022-11-30T14:16:47.826Z,44.23
2022-11-30T14:21:49.859Z,43.98
2022-11-30T14:26:51.996Z,44.32
2022-11-30T14:32:08.154Z,44.48
2022-11-30T14:37:19.175Z,44.57
2022-11-30T14:42:21.347Z,44.70
2022-11-30T14:47:26.911Z,44.74
2022-11-30T14:53:13.753Z,45.03
2022-11-30T14:58:16.326Z,45.28
2022-11-30T15:03:20.502Z,45.57
2022-11-30T15:08:24.093Z,45.57
2022-11-30T15:13:26.496Z,45.57
2022-11-30T15:18:28.241Z,45.74
2022-11-30T15:23:30.263Z,45.87
2022-11-30T15:28:38.066Z,46.02
2022-11-30T15:33:46.166Z,45.91
2022-11-30T15:38:53.081Z,45.84
2022-11-30T15:43:57.355Z,46.03
2022-11-30T15:49:22.727Z,46.07
2022-11-30T15:54:47.162Z,45.85
2022-11-30T16:00:09.119Z,45.57
2022-11-30T16:05:14.900Z,45.51
2022-11-30T16:10:40.107Z,45.67
2022-11-30T16:15:47.622Z,45.82
2022-11-30T16:20:56.460Z,45.51
2022-11-30T16:25:58.460Z,45.58
2022-11-30T16:31:00.637Z,45.74
2022-11-30T16:36:07.527Z,45.74
2022-11-30T16:41:20.996Z,45.57
2022-11-30T16:46:25.626Z,45.34
2022-11-30T16:51:30.794Z,45.48
2022-11-30T16:56:33.392Z,45.40
2022-11-30T17:01:42.799Z,45.16
2022-11-30T17:06:49.983Z,45.35
2022-11-30T17:11:52.736Z,45.43
2022-11-30T17:16:54.676Z,45.68
2022-11-30T17:21:56.803Z,45.58
2022-11-30T17:27:00.037Z,45.61
2022-11-30T17:32:01.807Z,45.72
2022-11-30T17:37:03.673Z,45.77
2022-11-30T17:42:06.167Z,45.45
2022-11-30T17:47:07.920Z,45.19
2022-11-30T17:52:10.229Z,45.36
2022-11-30T17:57:11.985Z,45.41
2022-11-30T18:02:13.831Z,45.36
2022-11-30T18:07:15.794Z,45.12
2022-11-30T18:12:17.645Z,45.42
2022-11-30T18:17:19.403Z,45.40
2022-11-30T18:22:21.205Z,44.98
2022-11-30T18:27:23.018Z,45.04
2022-11-30T18:32:24.809Z,45.13
2022-11-30T18:37:26.635Z,44.96
2022-11-30T18:42:28.411Z,45.37
2022-11-30T18:47:30.294Z,45.64
2022-11-30T18:52:32.079Z,45.65
2022-11-30T18:57:35.897Z,45.80
2022-11-30T19:02:37.769Z,45.59
2022-11-30T19:07:40.037Z,45.55
2022-11-30T19:12:42.040Z,45.57
2022-11-30T19:17:44.134Z,45.92
2022-11-30T19:22:46.004Z,46.01
2022-11-30T19:27:47.664Z,46.34
2022-11-30T19:32:49.442Z,46.28
2022-11-30T19:37:54.203Z,46.26
2022-11-30T19:42:56.595Z,46.05
2022-11-30T19:47:58.372Z,46.08
2022-11-30T19:53:00.461Z,45.98
2022-11-30T19:58:02.343Z,46.09
2022-11-30T20:03:09.740Z,45.99
2022-11-30T20:08:11.591Z,46.26
2022-11-30T20:13:13.505Z,46.10
2022-11-30T20:18:15.282Z,46.20
2022-11-30T20:23:17.160Z,46.10
2022-11-30T20:28:18.940Z,46.06
2022-11-30T20:33:20.678Z,46.03
2022-11-30T20:38:22.596Z,46.34
2022-11-30T20:43:25.070Z,46.18
2022-11-30T20:48:26.951Z,45.95
2022-11-30T20:53:28.874Z,46.28
2022-11-30T20:58:31.141Z,46.09
2022-11-30T21:03:32.918Z,46.20
2022-11-30T21:08:36.451Z,45.97
2022-11-30T21:13:39.541Z,45.88
2022-11-30T21:18:44.042Z,45.74
2022-11-30T21:23:47.322Z,45.82
2022-11-30T21:28:53.282Z,45.89
2022-11-30T21:33:55.153Z,45.70
2022-11-30T21:39:04.997Z,45.53
2022-11-30T21:44:12.325Z,45.30
2022-11-30T21:49:15.740Z,45.36
2022-11-30T21:54:17.619Z,45.48
2022-11-30T21:59:19.496Z,45.65
2022-11-30T22:04:21.421Z,45.47
2022-11-30T22:09:23.361Z,45.56
2022-11-30T22:14:25.967Z,45.79
2022-11-30T22:19:27.711Z,45.80
2022-11-30T22:24:29.568Z,45.79
2022-11-30T22:29:31.557Z,45.71
2022-11-30T22:34:37.986Z,45.73
2022-11-30T22:39:39.864Z,45.48
2022-11-30T22:44:42.255Z,45.54
2022-11-30T22:49:44.114Z,45.39
2022-11-30T22:54:46.010Z,45.08
2022-11-30T22:59:48.129Z,44.97
2022-11-30T23:04:50.183Z,45.31
2022-11-30T23:09:52.066Z,45.57
2022-11-30T23:14:53.942Z,45.41
2022-11-30T23:19:55.674Z,45.21
2022-11-30T23:24:57.497Z,44.90
2022-11-30T23:29:59.479Z,44.98
2022-11-30T23:35:01.240Z,45.18
2022-11-30T23:40:04.260Z,45.23
2022-11-30T23:45:06.852Z,45.35
2022-11-30T23:50:09.348Z,45.59
2022-11-30T23:55:11.339Z,45.18
